createdAt,value
2022-10-20T00:01:25.429Z,6.17
2022-10-20T00:03:54.972Z,5.93
2022-10-20T00:06:23.150Z,6.40
2022-10-20T00:08:51.049Z,6.07
2022-10-20T00:11:19.563Z,6.15
2022-10-20T00:13:47.768Z,5.87
2022-10-20T00:16:15.581Z,6.47
2022-10-20T00:18:42.926Z,6.80
2022-10-20T00:21:13.312Z,6.15
2022-10-20T00:23:40.674Z,5.20
2022-10-20T00:26:08.969Z,6.27
2022-10-20T00:28:36.660Z,5.70
2022-10-20T00:31:04.439Z,6.28
2022-10-20T00:33:31.903Z,5.80
2022-10-20T00:35:59.737Z,6.20
2022-10-20T00:38:28.442Z,6.40
2022-10-20T00:40:55.786Z,6.70
2022-10-20T00:43:23.155Z,6.57
2022-10-20T00:45:52.485Z,6.63
2022-10-20T00:48:20.828Z,5.95
2022-10-20T00:50:50.498Z,6.00
2022-10-20T00:53:18.555Z,6.78
2022-10-20T00:55:49.701Z,6.68
2022-10-20T00:58:17.383Z,6.60
2022-10-20T01:00:45.628Z,5.75
2022-10-20T01:03:16.013Z,6.77
2022-10-20T01:05:43.360Z,6.78
2022-10-20T01:08:10.675Z,6.50
2022-10-20T01:10:40.839Z,6.57
2022-10-20T01:13:14.129Z,6.65
2022-10-20T01:15:45.022Z,6.33
2022-10-20T01:18:15.868Z,6.38
2022-10-20T01:20:55.882Z,7.25
2022-10-20T01:23:41.343Z,6.30
2022-10-20T01:26:29.507Z,7.10
2022-10-20T01:28:58.869Z,7.50
2022-10-20T01:31:29.396Z,6.88
2022-10-20T01:33:59.371Z,6.85
2022-10-20T01:36:29.566Z,7.57
2022-10-20T01:39:00.574Z,7.07
2022-10-20T01:41:32.924Z,7.07
2022-10-20T01:44:02.486Z,7.18
2022-10-20T01:46:30.052Z,7.53
2022-10-20T01:48:57.655Z,6.72
2022-10-20T01:51:25.009Z,7.10
2022-10-20T01:53:52.354Z,7.67
2022-10-20T01:56:21.071Z,7.65
2022-10-20T01:59:06.571Z,7.10
2022-10-20T02:01:41.513Z,8.52
2022-10-20T02:04:09.605Z,8.10
2022-10-20T02:06:43.675Z,7.97
2022-10-20T02:09:14.373Z,7.70
2022-10-20T02:11:45.339Z,8.30
2022-10-20T02:14:15.806Z,8.32
2022-10-20T02:16:45.994Z,7.63
2022-10-20T02:19:14.887Z,8.00
2022-10-20T02:21:42.227Z,8.32
2022-10-20T02:24:10.467Z,7.22
2022-10-20T02:26:38.850Z,7.70
2022-10-20T02:29:11.488Z,8.10
2022-10-20T02:31:40.312Z,7.87
2022-10-20T02:34:08.262Z,7.85
2022-10-20T02:36:38.086Z,7.65
2022-10-20T02:39:05.601Z,7.70
2022-10-20T02:41:33.099Z,8.65
2022-10-20T02:44:00.600Z,8.97
2022-10-20T02:46:27.968Z,7.78
2022-10-20T02:48:56.660Z,8.15
2022-10-20T02:51:24.023Z,8.23
2022-10-20T02:53:51.390Z,7.95
2022-10-20T02:56:18.763Z,8.57
2022-10-20T02:58:46.124Z,8.75
2022-10-20T03:01:13.539Z,8.27
2022-10-20T03:03:40.964Z,8.73
2022-10-20T03:06:10.848Z,8.40
2022-10-20T03:08:38.484Z,8.53
2022-10-20T03:11:05.909Z,8.45
2022-10-20T03:13:33.567Z,8.95
2022-10-20T03:16:01.171Z,9.23
2022-10-20T03:18:28.819Z,8.60
2022-10-20T03:20:56.177Z,8.53
2022-10-20T03:23:24.889Z,8.43
2022-10-20T03:25:52.257Z,8.93
2022-10-20T03:28:19.588Z,8.30
2022-10-20T03:30:47.492Z,8.90
2022-10-20T03:33:14.858Z,8.70
2022-10-20T03:35:42.218Z,8.70
2022-10-20T03:38:09.557Z,9.05
2022-10-20T03:40:38.258Z,8.98
2022-10-20T03:43:05.627Z,9.48
2022-10-20T03:45:32.985Z,9.57
2022-10-20T03:48:00.380Z,9.65
2022-10-20T03:50:27.736Z,9.15
2022-10-20T03:52:55.072Z,9.23
2022-10-20T03:55:22.425Z,9.75
2022-10-20T03:57:51.152Z,9.10
2022-10-20T04:00:18.690Z,9.43
2022-10-20T04:02:46.892Z,9.05
2022-10-20T04:05:15.280Z,9.23
2022-10-20T04:07:42.638Z,9.57
2022-10-20T04:10:10.857Z,9.67
2022-10-20T04:12:38.660Z,9.88
2022-10-20T04:15:08.746Z,9.68
2022-10-20T04:17:36.841Z,10.30
2022-10-20T04:20:04.505Z,10.27
2022-10-20T04:22:31.861Z,9.50
2022-10-20T04:24:59.240Z,9.75
2022-10-20T04:27:26.575Z,9.68
2022-10-20T04:29:53.922Z,10.63
2022-10-20T04:32:22.615Z,9.85
2022-10-20T04:34:49.954Z,9.73
2022-10-20T04:37:17.359Z,10.80
2022-10-20T04:39:44.711Z,9.95
2022-10-20T04:42:12.133Z,10.40
2022-10-20T04:44:39.526Z,11.00
2022-10-20T04:47:06.890Z,10.70
2022-10-20T04:49:35.593Z,10.40
2022-10-20T04:52:03.075Z,10.80
2022-10-20T04:54:30.476Z,11.88
2022-10-20T04:56:57.863Z,11.65
2022-10-20T04:59:25.435Z,11.17
2022-10-20T05:01:52.861Z,10.73
2022-10-20T05:04:21.721Z,12.45
2022-10-20T05:06:50.783Z,12.05
2022-10-20T05:09:18.140Z,12.52
2022-10-20T05:11:45.584Z,12.20
2022-10-20T05:14:12.958Z,12.77
2022-10-20T05:16:40.322Z,12.88
2022-10-20T05:19:07.741Z,11.68
2022-10-20T05:21:35.344Z,12.60
2022-10-20T05:24:05.350Z,11.90
2022-10-20T05:26:34.815Z,11.77
2022-10-20T05:29:03.348Z,12.20
2022-10-20T05:31:30.703Z,12.82
2022-10-20T05:33:58.579Z,12.85
2022-10-20T05:36:26.810Z,12.07
2022-10-20T05:38:55.612Z,11.55
2022-10-20T05:41:25.162Z,11.55
2022-10-20T05:43:53.724Z,11.70
2022-10-20T05:46:21.339Z,12.43
2022-10-20T05:48:48.806Z,11.73
2022-10-20T05:51:18.020Z,11.98
2022-10-20T05:53:46.952Z,11.23
2022-10-20T05:56:15.195Z,11.27
2022-10-20T05:58:44.222Z,11.32
2022-10-20T06:01:16.634Z,10.70
2022-10-20T06:03:44.263Z,11.77
2022-10-20T06:06:11.824Z,11.00
2022-10-20T06:08:39.471Z,10.95
2022-10-20T06:11:07.582Z,11.45
2022-10-20T06:13:35.526Z,11.40
2022-10-20T06:16:04.973Z,11.68
2022-10-20T06:18:32.583Z,11.15
2022-10-20T06:21:01.067Z,11.52
2022-10-20T06:23:28.429Z,11.10
2022-10-20T06:25:56.095Z,10.97
2022-10-20T06:28:23.505Z,10.93
2022-10-20T06:30:50.860Z,9.95
2022-10-20T06:33:19.545Z,11.00
2022-10-20T06:35:46.893Z,10.30
2022-10-20T06:38:14.230Z,10.43
2022-10-20T06:40:41.571Z,11.52
2022-10-20T06:43:08.897Z,11.13
2022-10-20T06:45:36.223Z,10.80
2022-10-20T06:48:03.593Z,11.25
2022-10-20T06:50:33.875Z,10.97
2022-10-20T06:53:01.271Z,10.32
2022-10-20T06:55:28.797Z,10.15
2022-10-20T06:57:56.136Z,10.70
2022-10-20T07:00:23.517Z,10.23
2022-10-20T07:02:50.880Z,10.70
2022-10-20T07:05:19.742Z,10.85
2022-10-20T07:07:48.572Z,11.63
2022-10-20T07:10:16.018Z,9.85
2022-10-20T07:12:43.397Z,10.65
2022-10-20T07:15:11.163Z,10.50
2022-10-20T07:17:38.471Z,10.73
2022-10-20T07:20:06.668Z,10.32
2022-10-20T07:22:37.246Z,10.85
2022-10-20T07:25:07.039Z,9.98
2022-10-20T07:27:34.372Z,10.80
2022-10-20T07:30:01.739Z,10.10
2022-10-20T07:32:29.085Z,10.57
2022-10-20T07:34:56.432Z,11.27
2022-10-20T07:37:23.777Z,10.27
2022-10-20T07:39:51.139Z,10.07
2022-10-20T07:42:19.934Z,9.77
2022-10-20T07:44:47.346Z,10.50
2022-10-20T07:47:14.759Z,9.50
2022-10-20T07:49:44.235Z,10.57
2022-10-20T07:52:12.178Z,10.30
2022-10-20T07:54:39.522Z,10.63
2022-10-20T07:57:06.859Z,10.00
2022-10-20T07:59:35.595Z,9.98
2022-10-20T08:02:03.029Z,10.40
2022-10-20T08:04:31.392Z,10.07
2022-10-20T08:06:58.820Z,10.82
2022-10-20T08:09:26.165Z,10.57
2022-10-20T08:11:55.579Z,10.40
2022-10-20T08:14:23.396Z,9.18
2022-10-20T08:16:54.865Z,10.53
2022-10-20T08:19:49.402Z,10.05
2022-10-20T08:22:14.568Z,9.85
2022-10-20T08:24:41.918Z,9.43
2022-10-20T08:27:09.249Z,10.43
2022-10-20T08:29:37.555Z,8.70
2022-10-20T08:32:06.570Z,9.52
2022-10-20T08:34:33.919Z,9.52
2022-10-20T08:37:01.414Z,9.27
2022-10-20T08:39:28.829Z,9.38
2022-10-20T08:42:08.586Z,9.57
2022-10-20T08:44:36.570Z,10.00
2022-10-20T08:47:05.368Z,9.32
2022-10-20T08:49:35.503Z,9.55
2022-10-20T08:52:02.978Z,9.57
2022-10-20T08:54:33.011Z,9.17
2022-10-20T08:57:00.691Z,9.77
2022-10-20T08:59:29.665Z,9.77
2022-10-20T09:01:57.747Z,9.48
2022-10-20T09:04:27.211Z,8.95
2022-10-20T09:06:58.519Z,9.20
2022-10-20T09:09:26.321Z,9.02
2022-10-20T09:11:56.936Z,9.50
2022-10-20T09:14:24.257Z,9.75
2022-10-20T09:17:00.705Z,10.20
2022-10-20T09:19:28.612Z,8.93
2022-10-20T09:21:58.659Z,9.05
2022-10-20T09:24:29.725Z,9.27
2022-10-20T09:26:59.539Z,9.30
2022-10-20T09:29:35.638Z,9.18
2022-10-20T09:32:22.469Z,9.30
2022-10-20T09:34:50.746Z,9.10
2022-10-20T09:37:20.428Z,9.32
2022-10-20T09:39:55.732Z,8.60
2022-10-20T09:42:24.575Z,9.77
2022-10-20T09:44:54.111Z,8.83
2022-10-20T09:47:23.403Z,8.52
2022-10-20T09:49:58.445Z,8.60
2022-10-20T09:52:34.442Z,9.20
2022-10-20T09:55:03.758Z,9.23
2022-10-20T09:57:32.003Z,9.57
2022-10-20T10:00:08.628Z,8.68
2022-10-20T10:02:40.746Z,9.15
2022-10-20T10:05:15.647Z,8.82
2022-10-20T10:07:44.336Z,9.02
2022-10-20T10:10:24.287Z,8.60
2022-10-20T10:12:52.935Z,9.90
2022-10-20T10:15:26.686Z,9.10
2022-10-20T10:17:54.692Z,9.50
2022-10-20T10:20:29.472Z,9.55
2022-10-20T10:23:09.040Z,10.30
2022-10-20T10:25:36.382Z,9.95
2022-10-20T10:28:06.687Z,9.63
2022-10-20T10:30:35.077Z,9.57
2022-10-20T10:33:02.644Z,9.77
2022-10-20T10:35:31.973Z,9.93
2022-10-20T10:37:59.969Z,10.27
2022-10-20T10:40:32.628Z,10.20
2022-10-20T10:43:08.890Z,9.90
2022-10-20T10:45:44.548Z,10.70
2022-10-20T10:48:38.732Z,10.37
2022-10-20T10:51:07.562Z,10.18
2022-10-20T10:53:43.724Z,11.07
2022-10-20T10:56:16.748Z,9.93
2022-10-20T10:58:46.742Z,10.48
2022-10-20T11:01:24.898Z,9.63
2022-10-20T11:04:05.480Z,10.20
2022-10-20T11:06:35.436Z,9.60
2022-10-20T11:09:20.671Z,10.30
2022-10-20T11:11:55.502Z,9.88
2022-10-20T11:14:34.674Z,10.70
2022-10-20T11:17:06.032Z,9.98
2022-10-20T11:19:43.945Z,9.77
2022-10-20T11:22:17.099Z,10.20
2022-10-20T11:24:48.903Z,10.38
2022-10-20T11:27:19.391Z,10.10
2022-10-20T11:29:48.571Z,10.98
2022-10-20T11:32:22.603Z,10.35
2022-10-20T11:34:54.003Z,10.55
2022-10-20T11:37:24.475Z,10.52
2022-10-20T11:39:56.674Z,10.50
2022-10-20T11:42:29.134Z,9.60
2022-10-20T11:44:57.860Z,10.02
2022-10-20T11:47:28.630Z,10.85
2022-10-20T11:49:55.965Z,10.88
2022-10-20T11:52:41.301Z,11.23
2022-10-20T11:55:27.914Z,11.40
2022-10-20T11:58:04.341Z,11.23
2022-10-20T12:00:36.676Z,11.20
2022-10-20T12:03:25.623Z,11.27
2022-10-20T12:06:06.305Z,11.03
2022-10-20T12:08:44.517Z,10.93
2022-10-20T12:11:15.060Z,10.38
2022-10-20T12:13:48.415Z,10.90
2022-10-20T12:16:30.696Z,11.20
2022-10-20T12:19:15.967Z,10.87
2022-10-20T12:21:57.044Z,10.85
2022-10-20T12:24:32.103Z,11.40
2022-10-20T12:27:17.687Z,11.02
2022-10-20T12:30:09.140Z,10.57
2022-10-20T12:32:39.655Z,11.30
2022-10-20T12:35:25.783Z,10.30
2022-10-20T12:37:56.787Z,10.15
2022-10-20T12:40:27.072Z,10.82
2022-10-20T12:42:56.073Z,10.68
2022-10-20T12:45:27.253Z,9.90
2022-10-20T12:47:58.988Z,9.80
2022-10-20T12:50:34.127Z,9.52
2022-10-20T12:53:10.112Z,9.93
2022-10-20T12:55:41.122Z,9.70
2022-10-20T12:58:13.753Z,9.90
2022-10-20T13:00:59.958Z,10.07
2022-10-20T13:03:39.535Z,9.65
2022-10-20T13:06:22.090Z,9.77
2022-10-20T13:09:04.508Z,9.65
2022-10-20T13:11:44.396Z,9.77
2022-10-20T13:14:23.070Z,10.45
2022-10-20T13:16:51.996Z,10.40
2022-10-20T13:19:22.570Z,10.35
2022-10-20T13:21:50.197Z,10.63
2022-10-20T13:24:19.431Z,9.97
2022-10-20T13:26:48.471Z,10.27
2022-10-20T13:29:19.638Z,10.70
2022-10-20T13:31:51.034Z,9.88
2022-10-20T13:34:23.379Z,10.07
2022-10-20T13:37:00.474Z,10.90
2022-10-20T13:39:32.251Z,10.98
2022-10-20T13:42:04.379Z,10.35
2022-10-20T13:44:37.366Z,10.30
2022-10-20T13:47:08.754Z,10.57
2022-10-20T13:49:49.305Z,9.90
2022-10-20T13:52:21.379Z,10.55
2022-10-20T13:54:50.484Z,10.70
2022-10-20T13:57:23.871Z,10.70
2022-10-20T13:59:56.427Z,11.10
2022-10-20T14:02:25.652Z,10.30
2022-10-20T14:05:04.387Z,9.75
2022-10-20T14:07:36.943Z,9.57
2022-10-20T14:10:04.503Z,9.60
2022-10-20T14:12:32.135Z,9.23
2022-10-20T14:15:02.184Z,9.57
2022-10-20T14:17:29.847Z,9.07
2022-10-20T14:20:18.388Z,9.00
2022-10-20T14:22:46.411Z,9.40
2022-10-20T14:25:13.879Z,9.60
2022-10-20T14:27:41.273Z,9.77
2022-10-20T14:30:09.175Z,9.43
2022-10-20T14:32:39.018Z,10.32
2022-10-20T14:35:18.523Z,10.32
2022-10-20T14:37:47.485Z,10.32
2022-10-20T14:40:20.118Z,10.20
2022-10-20T14:42:47.483Z,10.15
2022-10-20T14:45:19.151Z,10.07
2022-10-20T14:47:46.620Z,10.25
2022-10-20T14:50:23.923Z,9.88
2022-10-20T14:52:53.946Z,9.97
2022-10-20T14:55:42.844Z,9.48
2022-10-20T14:58:28.964Z,9.60
2022-10-20T15:01:11.547Z,9.25
2022-10-20T15:03:38.942Z,9.43
2022-10-20T15:06:13.798Z,9.13
2022-10-20T15:08:52.966Z,10.07
2022-10-20T15:11:24.201Z,8.60
2022-10-20T15:13:52.747Z,9.05
2022-10-20T15:16:35.607Z,8.23
2022-10-20T15:19:12.830Z,8.23
2022-10-20T15:21:41.509Z,8.60
2022-10-20T15:24:08.847Z,8.07
2022-10-20T15:26:36.154Z,7.97
2022-10-20T15:29:04.212Z,7.90
2022-10-20T15:31:31.671Z,7.63
2022-10-20T15:33:59.351Z,7.75
2022-10-20T15:36:29.306Z,8.30
2022-10-20T15:38:58.163Z,7.95
2022-10-20T15:41:26.349Z,8.90
2022-10-20T15:43:53.765Z,8.30
2022-10-20T15:46:21.100Z,8.23
2022-10-20T15:48:48.849Z,8.73
2022-10-20T15:51:17.731Z,9.20
2022-10-20T15:53:45.930Z,8.88
2022-10-20T15:56:14.666Z,10.30
2022-10-20T15:58:42.011Z,10.40
2022-10-20T16:01:10.126Z,9.88
2022-10-20T16:03:40.645Z,9.63
2022-10-20T16:06:08.387Z,11.27
2022-10-20T16:08:36.213Z,11.40
2022-10-20T16:11:03.956Z,11.38
2022-10-20T16:13:33.870Z,10.82
2022-10-20T16:16:01.545Z,11.00
2022-10-20T16:18:28.907Z,9.40
2022-10-20T16:20:58.731Z,8.50
2022-10-20T16:23:26.296Z,9.60
2022-10-20T16:25:54.253Z,9.18
2022-10-20T16:28:21.607Z,9.30
2022-10-20T16:30:50.573Z,9.88
2022-10-20T16:33:17.918Z,9.03
2022-10-20T16:35:45.577Z,8.85
2022-10-20T16:38:12.927Z,9.05
2022-10-20T16:40:40.252Z,9.07
2022-10-20T16:43:07.918Z,9.20
2022-10-20T16:45:35.227Z,8.90
2022-10-20T16:48:04.319Z,9.23
2022-10-20T16:50:31.656Z,9.68
2022-10-20T16:52:59.315Z,8.70
2022-10-20T16:55:26.643Z,9.02
2022-10-20T16:57:55.788Z,8.43
2022-10-20T17:00:23.132Z,10.15
2022-10-20T17:02:52.866Z,9.35
2022-10-20T17:05:26.370Z,9.27
2022-10-20T17:07:55.366Z,8.57
2022-10-20T17:10:22.743Z,9.00
2022-10-20T17:15:22.411Z,9.25
2022-10-20T17:17:50.115Z,8.52
2022-10-20T17:20:17.530Z,8.95
2022-10-20T17:22:46.211Z,8.57
2022-10-20T17:25:13.546Z,8.48
2022-10-20T17:27:40.877Z,8.05
2022-10-20T17:30:08.955Z,8.63
2022-10-20T17:32:36.591Z,8.35
2022-10-20T17:35:04.203Z,8.63
2022-10-20T17:37:31.870Z,8.27
2022-10-20T17:40:00.628Z,8.45
2022-10-20T17:42:27.957Z,8.88
2022-10-20T17:44:55.295Z,8.52
2022-10-20T17:47:22.834Z,8.93
2022-10-20T17:49:50.170Z,8.68
2022-10-20T17:52:17.508Z,9.50
2022-10-20T17:54:44.835Z,9.38
2022-10-20T17:57:13.504Z,9.70
2022-10-20T17:59:52.376Z,8.87
2022-10-20T18:02:23.603Z,8.82
2022-10-20T18:04:51.044Z,9.60
2022-10-20T18:07:18.426Z,8.45
2022-10-20T18:09:45.765Z,8.90
2022-10-20T18:12:15.238Z,8.73
2022-10-20T18:14:42.707Z,9.07
2022-10-20T18:17:10.044Z,9.05
2022-10-20T18:19:37.490Z,9.93
2022-10-20T18:22:05.147Z,9.98
2022-10-20T18:24:32.940Z,10.00
2022-10-20T18:27:00.280Z,10.35
2022-10-20T18:29:28.965Z,9.88
2022-10-20T18:31:56.303Z,10.20
2022-10-20T18:34:23.639Z,9.75
2022-10-20T18:36:51.410Z,9.87
2022-10-20T18:39:18.817Z,10.70
2022-10-20T18:41:46.402Z,10.02
2022-10-20T18:44:14.928Z,9.90
2022-10-20T18:46:43.811Z,10.35
2022-10-20T18:49:12.537Z,10.53
2022-10-20T18:51:39.913Z,10.02
2022-10-20T18:54:07.971Z,9.85
2022-10-20T18:56:35.854Z,9.68
2022-10-20T18:59:05.027Z,10.77
2022-10-20T19:01:33.442Z,11.00
2022-10-20T19:04:02.880Z,11.02
2022-10-20T19:06:31.399Z,10.70
2022-10-20T19:08:59.763Z,10.00
2022-10-20T19:11:28.402Z,10.02
2022-10-20T19:13:55.762Z,10.73
2022-10-20T19:16:23.765Z,11.68
2022-10-20T19:18:51.682Z,12.75
2022-10-20T19:23:53.705Z,14.65
2022-10-20T19:26:22.026Z,12.73
2022-10-20T19:28:53.716Z,12.60
2022-10-20T19:31:27.523Z,12.25
2022-10-20T19:33:55.835Z,12.57
2022-10-20T19:36:24.852Z,11.57
2022-10-20T19:38:52.291Z,12.43
2022-10-20T19:41:19.722Z,12.38
2022-10-20T19:43:47.548Z,11.70
2022-10-20T19:46:16.702Z,12.23
2022-10-20T19:48:44.906Z,11.57
2022-10-20T19:51:12.656Z,11.97
2022-10-20T19:53:41.592Z,11.70
2022-10-20T19:56:09.955Z,13.23
2022-10-20T19:58:40.254Z,12.57
2022-10-20T20:01:10.782Z,12.18
2022-10-20T20:03:38.255Z,12.97
2022-10-20T20:06:07.292Z,12.52
2022-10-20T20:08:34.743Z,11.68
2022-10-20T20:11:04.212Z,11.85
2022-10-20T20:13:31.657Z,12.43
2022-10-20T20:16:00.630Z,12.40
2022-10-20T20:18:29.701Z,12.75
2022-10-20T20:21:01.653Z,12.52
2022-10-20T20:23:40.856Z,12.75
2022-10-20T20:26:17.660Z,12.32
2022-10-20T20:28:45.046Z,12.30
2022-10-20T20:31:12.823Z,12.23
2022-10-20T20:33:40.171Z,12.07
2022-10-20T20:36:08.696Z,12.05
2022-10-20T20:38:37.049Z,12.25
2022-10-20T20:41:05.064Z,12.67
2022-10-20T20:43:34.957Z,12.38
2022-10-20T20:46:05.803Z,13.02
2022-10-20T20:48:33.385Z,13.02
2022-10-20T20:51:00.802Z,12.55
2022-10-20T20:53:28.199Z,12.60
2022-10-20T20:55:56.417Z,11.88
2022-10-20T20:58:24.195Z,12.30
2022-10-20T21:00:53.140Z,13.15
2022-10-20T21:03:20.525Z,11.70
2022-10-20T21:05:47.844Z,10.97
2022-10-20T21:08:15.278Z,12.23
2022-10-20T21:10:42.630Z,12.13
2022-10-20T21:13:09.997Z,12.15
2022-10-20T21:15:37.351Z,11.30
2022-10-20T21:18:06.198Z,10.67
2022-10-20T21:20:33.549Z,10.65
2022-10-20T21:23:00.897Z,11.85
2022-10-20T21:25:28.256Z,11.32
2022-10-20T21:27:55.616Z,11.45
2022-10-20T21:30:23.053Z,10.93
2022-10-20T21:32:50.460Z,11.05
2022-10-20T21:35:19.155Z,10.57
2022-10-20T21:37:46.504Z,10.68
2022-10-20T21:40:13.848Z,10.65
2022-10-20T21:42:41.191Z,10.97
2022-10-20T21:45:08.788Z,10.65
2022-10-20T21:47:36.106Z,10.38
2022-10-20T21:50:03.502Z,10.57
2022-10-20T21:52:32.188Z,10.75
2022-10-20T21:54:59.550Z,10.23
2022-10-20T21:57:26.883Z,9.80
2022-10-20T21:59:54.246Z,10.38
2022-10-20T22:02:21.576Z,10.38
2022-10-20T22:04:48.898Z,9.82
2022-10-20T22:07:16.581Z,10.20
2022-10-20T22:09:46.217Z,9.75
2022-10-20T22:12:13.547Z,9.65
2022-10-20T22:14:43.693Z,10.23
2022-10-20T22:17:14.315Z,10.32
2022-10-20T22:19:41.733Z,9.30
2022-10-20T22:22:10.143Z,9.30
2022-10-20T22:24:37.471Z,9.80
2022-10-20T22:27:15.462Z,9.18
2022-10-20T22:29:54.152Z,9.40
2022-10-20T22:32:24.723Z,10.50
2022-10-20T22:34:52.058Z,10.80
2022-10-20T22:37:19.400Z,9.73
2022-10-20T22:39:46.754Z,9.52
2022-10-20T22:42:15.462Z,10.02
2022-10-20T22:44:42.828Z,9.40
2022-10-20T22:47:10.189Z,9.60
2022-10-20T22:49:37.518Z,10.57
2022-10-20T22:52:04.870Z,8.48
2022-10-20T22:54:32.204Z,10.18
2022-10-20T22:56:59.532Z,9.30
2022-10-20T22:59:28.220Z,8.90
2022-10-20T23:01:55.544Z,9.55
2022-10-20T23:04:22.892Z,9.10
2022-10-20T23:06:50.289Z,9.15
2022-10-20T23:09:17.702Z,9.40
2022-10-20T23:11:45.078Z,8.68
2022-10-20T23:14:12.417Z,9.82
2022-10-20T23:16:41.099Z,9.00
2022-10-20T23:19:08.490Z,8.90
2022-10-20T23:21:35.969Z,8.30
2022-10-20T23:24:03.660Z,8.60
2022-10-20T23:26:30.991Z,8.70
2022-10-20T23:28:58.310Z,8.93
2022-10-20T23:31:25.992Z,8.68
2022-10-20T23:33:56.440Z,9.20
2022-10-20T23:36:23.875Z,9.55
2022-10-20T23:38:51.206Z,8.95
2022-10-20T23:41:18.704Z,9.27
2022-10-20T23:43:46.095Z,8.77
2022-10-20T23:46:13.486Z,9.43
2022-10-20T23:48:41.216Z,9.15
2022-10-20T23:51:09.908Z,8.55
2022-10-20T23:53:37.319Z,9.00
2022-10-20T23:56:04.770Z,9.30
2022-10-20T23:58:32.124Z,9.10
